Time;durP1;ratioP1;P1;durP2;ratioP2;P2;SDS_P1;SDS_P2;PMS_P1;PMS_P2;Temp;Humidity;BMP_temperature;BMP_pressure;BME280_temperature;BME280_humidity;BME280_pressure;Samples;Min_cycle;Max_cycle;Signal;HPM_P1;HPM_P2
2023/03/06 00:04:18;;;;;;;;;;;;;;;;;;;;;
2023/03/06 00:07:38;;;;;;;36.07;21.60;;;5.40;99.90;;;;;;5093244;23;20206;-93
2023/03/06 00:10:36;;;;;;;;;;;;;;;;;;;;;
2023/03/06 00:18:09;;;;;;;;;;;;;;;;;;;;;
2023/03/06 00:21:40;;;;;;;;;;;;;;;;;;;;;
2023/03/06 00:36:55;;;;;;;39.17;21.47;;;5.30;99.90;;;;;;4936150;23;20166;-93
2023/03/06 00:39:55;;;;;;;37.87;21.63;;;5.30;99.90;;;;;;4998228;23;20273;-92
2023/03/06 00:42:41;;;;;;;38.47;22.07;;;5.20;99.90;;;;;;4998515;23;20170;-93
2023/03/06 00:45:40;;;;;;;;;;;;;;;;;;;;;
2023/03/06 00:49:00;;;;;;;;;;;;;;;;;;;;;
2023/03/06 00:51:51;;;;;;;;;;;;;;;;;;;;;
2023/03/06 00:55:03;;;;;;;38.37;21.77;;;5.20;99.90;;;;;;5024225;23;20497;-93
2023/03/06 00:57:09;;;;;;;36.43;21.53;;;4.90;99.90;;;;;;5068978;23;20161;-94
2023/03/06 01:07:18;;;;;;;;;;;;;;;;;;;;;
2023/03/06 01:09:51;;;;;;;39.70;20.97;;;4.90;99.90;;;;;;5191320;22;20662;-94
2023/03/06 01:12:26;;;;;;;41.17;23.17;;;4.90;99.90;;;;;;5147924;23;20252;-93
2023/03/06 01:14:56;;;;;;;36.83;21.57;;;5.00;99.90;;;;;;5191560;22;20158;-94
2023/03/06 01:17:44;;;;;;;38.17;21.57;;;4.90;99.90;;;;;;5149989;23;20159;-94
2023/03/06 01:20:09;;;;;;;;;;;;;;;;;;;;;
2023/03/06 01:22:18;;;;;;;42.30;22.83;;;4.80;99.90;;;;;;5171237;23;20249;-93
2023/03/06 01:24:44;;;;;;;38.07;21.93;;;4.70;99.90;;;;;;5173593;22;20162;-94
2023/03/06 01:27:35;;;;;;;42.87;22.87;;;4.90;99.90;;;;;;5146389;23;20184;-93
2023/03/06 01:29:53;;;;;;;45.23;23.67;;;5.00;99.90;;;;;;5172929;22;20491;-93
2023/03/06 01:31:54;;;;;;;43.57;24.60;;;5.00;99.90;;;;;;5147942;23;20269;-93
2023/03/06 01:34:14;;;;;;;;;;;;;;;;;;;;;
2023/03/06 01:37:26;;;;;;;47.43;23.80;;;5.10;99.90;;;;;;5200969;22;20161;-92
2023/03/06 01:39:36;;;;;;;48.67;23.80;;;4.90;99.90;;;;;;5172110;23;20652;-94
2023/03/06 01:42:29;;;;;;;42.40;22.33;;;4.90;99.90;;;;;;5175418;22;20446;-93
2023/03/06 01:44:41;;;;;;;42.47;23.20;;;4.90;99.90;;;;;;5145516;23;20159;-94
2023/03/06 01:47:14;;;;;;;40.57;22.40;;;4.90;99.90;;;;;;5170421;22;20151;-94
2023/03/06 01:49:57;;;;;;;;;;;;;;;;;;;;;
2023/03/06 01:52:51;;;;;;;44.70;24.27;;;5.20;99.90;;;;;;5198724;22;20158;-94
2023/03/06 02:01:31;;;;;;;45.73;24.40;;;5.30;99.90;;;;;;5151204;22;20212;-93
2023/03/06 02:03:50;;;;;;;47.57;23.90;;;5.20;99.90;;;;;;5175358;22;20154;-93
2023/03/06 02:06:18;;;;;;;44.30;24.87;;;5.10;99.90;;;;;;5144489;23;20195;-93
2023/03/06 02:09:02;;;;;;;45.50;24.80;;;5.10;99.90;;;;;;5145303;23;20159;-93
2023/03/06 02:11:56;;;;;;;47.97;24.73;;;5.10;99.90;;;;;;5151233;22;20182;-94
2023/03/06 02:14:52;;;;;;;49.60;25.27;;;5.00;99.90;;;;;;5147749;23;20177;-93
2023/03/06 02:17:33;;;;;;;53.20;25.43;;;4.90;99.90;;;;;;5165715;22;20612;-94
2023/03/06 02:20:01;;;;;;;46.67;24.90;;;4.90;99.90;;;;;;5172458;22;20158;-93
2023/03/06 02:22:26;;;;;;;44.57;24.83;;;5.10;99.90;;;;;;5169392;23;20170;-94
2023/03/06 02:28:46;;;;;;;;;;;;;;;;;;;;;
2023/03/06 02:31:31;;;;;;;44.23;24.43;;;5.20;99.90;;;;;;5178687;22;20186;-94
2023/03/06 02:34:13;;;;;;;42.90;23.80;;;5.10;99.90;;;;;;5195948;22;20154;-94
2023/03/06 02:37:08;;;;;;;49.23;25.07;;;5.20;99.90;;;;;;5196643;22;20153;-93
2023/03/06 02:39:57;;;;;;;;;;;;;;;;;;;;;
2023/03/06 02:42:40;;;;;;;;;;;;;;;;;;;;;
2023/03/06 02:45:43;;;;;;;;;;;;;;;;;;;;;
2023/03/06 03:02:15;;;;;;;;;;;;;;;;;;;;;
2023/03/06 03:04:51;;;;;;;53.57;25.00;;;5.20;99.90;;;;;;4991364;23;20709;-95
2023/03/06 03:15:43;;;;;;;;;;;;;;;;;;;;;
2023/03/06 03:18:33;;;;;;;;;;;;;;;;;;;;;
2023/03/06 04:44:10;;;;;;;53.83;27.90;;;4.40;99.90;;;;;;4397569;23;16565635;-94
2023/03/06 04:46:59;;;;;;;57.20;27.73;;;4.40;99.90;;;;;;5003159;23;20196;-92
2023/03/06 04:50:09;;;;;;;53.83;27.60;;;4.50;99.90;;;;;;4980574;23;20167;-95
2023/03/06 04:53:09;;;;;;;56.20;27.63;;;4.50;99.90;;;;;;4949915;23;20168;-93
2023/03/06 04:56:11;;;;;;;55.00;27.77;;;4.60;99.90;;;;;;4981362;23;20155;-93
2023/03/06 04:58:57;;;;;;;62.13;27.50;;;4.70;99.90;;;;;;4962717;23;20152;-93
2023/03/06 05:02:06;;;;;;;51.83;27.00;;;4.70;99.90;;;;;;4975894;23;20293;-94
2023/03/06 05:04:54;;;;;;;;;;;;;;;;;;;;;
2023/03/06 05:07:03;;;;;;;62.67;28.73;;;4.80;99.90;;;;;;5048417;23;20561;-93
2023/03/06 05:09:20;;;;;;;48.77;26.33;;;4.70;99.90;;;;;;5025150;23;20199;-94
2023/03/06 05:11:56;;;;;;;57.13;26.60;;;4.70;99.90;;;;;;5051009;23;20174;-95
2023/03/06 05:14:19;;;;;;;55.57;27.57;;;4.80;99.90;;;;;;5025379;23;20159;-94
2023/03/06 05:20:31;;;;;;;56.27;26.80;;;4.90;99.90;;;;;;5064540;23;20200;-94
2023/03/06 05:22:51;;;;;;;52.03;26.57;;;5.00;99.90;;;;;;5052063;23;20153;-94
2023/03/06 05:25:48;;;;;;;55.53;27.80;;;5.00;99.90;;;;;;5029447;23;20155;-92
2023/03/06 05:32:18;;;;;;;61.30;30.03;;;4.90;99.90;;;;;;4998939;23;20179;-93
2023/03/06 05:35:26;;;;;;;60.30;29.60;;;4.90;99.90;;;;;;4967098;23;20171;-93
2023/03/06 05:37:51;;;;;;;56.63;29.17;;;4.90;99.90;;;;;;4977240;23;20167;-93
2023/03/06 05:43:57;;;;;;;;;;;;;;;;;;;;;
2023/03/06 05:46:58;;;;;;;50.10;26.40;;;4.90;99.90;;;;;;5074528;23;20149;-93
2023/03/06 05:50:19;;;;;;;51.90;26.80;;;4.90;99.90;;;;;;5074390;23;20550;-92
2023/03/06 05:53:15;;;;;;;51.17;27.03;;;4.90;99.90;;;;;;5071679;23;20146;-93
2023/03/06 05:56:07;;;;;;;51.27;26.47;;;4.90;99.90;;;;;;5050263;23;20215;-92
2023/03/06 06:06:56;;;;;;;;;;;;;;;;;;;;;
2023/03/06 06:10:25;;;;;;;;;;;;;;;;;;;;;
2023/03/06 06:17:04;;;;;;;51.43;26.93;;;5.00;99.90;;;;;;4928639;24;20169;-92
2023/03/06 06:20:40;;;;;;;52.37;27.37;;;4.90;99.90;;;;;;4931013;24;20158;-92
2023/03/06 06:23:25;;;;;;;;;;;;;;;;;;;;;
2023/03/06 06:33:44;;;;;;;50.80;26.17;;;4.30;99.90;;;;;;4977637;23;20167;-93
2023/03/06 06:36:55;;;;;;;;;;;;;;;;;;;;;
2023/03/06 06:39:56;;;;;;;;;;;;;;;;;;;;;
2023/03/06 06:42:45;;;;;;;;;;;;;;;;;;;;;
2023/03/06 06:46:32;;;;;;;58.13;27.80;;;4.50;99.90;;;;;;4934546;24;20177;-93
2023/03/06 06:49:52;;;;;;;;;;;;;;;;;;;;;
2023/03/06 06:52:12;;;;;;;52.77;28.23;;;4.70;99.90;;;;;;4945588;24;20667;-92
2023/03/06 06:58:00;;;;;;;58.20;26.97;;;4.80;99.90;;;;;;4952536;23;20157;-92
2023/03/06 07:00:19;;;;;;;60.43;31.70;;;4.90;99.90;;;;;;5055184;23;20237;-93
2023/03/06 07:02:52;;;;;;;;;;;;;;;;;;;;;
2023/03/06 07:06:02;;;;;;;;;;;;;;;;;;;;;
2023/03/06 07:12:01;;;;;;;;;;;;;;;;;;;;;
2023/03/06 07:14:44;;;;;;;82.67;42.83;;;4.70;99.90;;;;;;4975059;23;20158;-93
2023/03/06 07:21:07;;;;;;;;;;;;;;;;;;;;;
2023/03/06 07:24:00;;;;;;;77.47;37.27;;;4.90;99.90;;;;;;5067266;23;20240;-92
2023/03/06 07:26:36;;;;;;;194.93;82.60;;;4.90;99.90;;;;;;5054924;23;20153;-93
2023/03/06 07:33:09;;;;;;;65.63;33.80;;;5.00;99.90;;;;;;5045861;23;20305;-93
2023/03/06 07:35:34;;;;;;;64.77;30.77;;;4.90;99.90;;;;;;5052453;23;20415;-94
2023/03/06 07:38:19;;;;;;;141.13;74.27;;;4.70;99.90;;;;;;5078101;23;20240;-93
2023/03/06 07:40:44;;;;;;;;;;;;;;;;;;;;;
2023/03/06 07:43:30;;;;;;;74.90;39.43;;;4.70;99.90;;;;;;5071051;23;20153;-92
2023/03/06 07:45:45;;;;;;;70.73;36.97;;;4.70;99.90;;;;;;5025423;23;20261;-92
2023/03/06 07:48:40;;;;;;;70.37;35.73;;;4.90;99.90;;;;;;5050908;23;20173;-93
2023/03/06 07:51:03;;;;;;;61.53;34.77;;;5.30;99.90;;;;;;5025393;23;20163;-92
2023/03/06 07:54:29;;;;;;;75.80;38.97;;;5.50;99.90;;;;;;5074395;23;20145;-92
2023/03/06 07:57:44;;;;;;;;;;;;;;;;;;;;;
2023/03/06 08:00:19;;;;;;;54.27;29.77;;;7.00;99.90;;;;;;5062449;23;20236;-95
2023/03/06 08:02:37;;;;;;;55.10;31.37;;;7.60;99.90;;;;;;5031057;23;20214;-95
2023/03/06 08:04:58;;;;;;;50.20;28.07;;;8.00;99.90;;;;;;5035708;23;20783;-93
2023/03/06 08:07:11;;;;;;;49.23;29.07;;;7.70;99.90;;;;;;5027021;23;20211;-94
2023/03/06 08:10:13;;;;;;;;;;;;;;;;;;;;;
2023/03/06 08:12:18;;;;;;;47.63;26.65;;;8.10;99.90;;;;;;5049555;23;20209;-93
2023/03/06 08:21:44;;;;;;;;;;;;;;;;;;;;;
2023/03/06 08:24:06;;;;;;;;;;;;;;;;;;;;;
2023/03/06 08:26:33;;;;;;;43.80;26.17;;;9.70;99.90;;;;;;5044557;23;20158;-93
2023/03/06 08:29:00;;;;;;;45.50;26.95;;;9.50;99.90;;;;;;5041396;23;20165;-91
2023/03/06 08:32:02;;;;;;;43.47;25.75;;;9.00;99.90;;;;;;5042336;23;20193;-93
2023/03/06 08:34:38;;;;;;;44.90;26.40;;;8.50;99.90;;;;;;5014500;23;20146;-92
2023/03/06 08:38:19;;;;;;;;;;;;;;;;;;;;;
2023/03/06 08:40:43;;;;;;;48.42;26.30;;;8.10;99.90;;;;;;5079469;23;20169;-91
2023/03/06 08:43:44;;;;;;;42.80;25.13;;;8.00;99.90;;;;;;5051314;23;20159;-93
2023/03/06 08:47:04;;;;;;;45.67;25.05;;;7.70;99.90;;;;;;5091534;23;20181;-93
2023/03/06 08:50:10;;;;;;;46.67;24.42;;;7.90;99.90;;;;;;5018444;23;20175;-93
2023/03/06 08:52:41;;;;;;;53.40;25.77;;;7.90;99.90;;;;;;4915561;24;20231;-95
2023/03/06 08:58:41;;;;;;;51.23;26.97;;;7.50;99.90;;;;;;5064853;23;20169;-92
2023/03/06 09:05:12;;;;;;;48.23;26.07;;;7.40;99.90;;;;;;4958805;23;20172;-93
2023/03/06 09:07:38;;;;;;;54.63;26.80;;;7.40;99.90;;;;;;4955276;23;20228;-93
2023/03/06 09:10:37;;;;;;;;;;;;;;;;;;;;;
2023/03/06 09:14:14;;;;;;;50.70;26.30;;;7.40;99.90;;;;;;4997808;23;20147;-92
2023/03/06 09:16:50;;;;;;;52.13;26.13;;;7.70;99.90;;;;;;5002826;23;20144;-92
2023/03/06 09:20:04;;;;;;;;;;;;;;;;;;;;;
2023/03/06 09:26:24;;;;;;;41.27;23.93;;;8.10;99.90;;;;;;4931469;24;20162;-92
2023/03/06 09:28:39;;;;;;;42.80;24.38;;;7.80;99.90;;;;;;4896813;24;20178;-94
2023/03/06 09:31:09;;;;;;;44.47;25.13;;;8.10;99.90;;;;;;4933603;23;20276;-94
2023/03/06 09:33:55;;;;;;;44.60;24.48;;;8.70;99.90;;;;;;4909637;24;20170;-93
2023/03/06 09:36:24;;;;;;;43.75;23.65;;;8.60;99.90;;;;;;4924640;23;20161;-93
2023/03/06 09:38:40;;;;;;;44.92;23.98;;;8.60;99.90;;;;;;4981923;23;20160;-95
2023/03/06 09:44:07;;;;;;;39.65;23.40;;;9.50;99.90;;;;;;5038831;23;20256;-95
2023/03/06 09:54:58;;;;;;;35.95;20.15;;;9.40;99.90;;;;;;5074437;23;20223;-94
2023/03/06 09:56:59;;;;;;;40.00;21.85;;;8.90;99.90;;;;;;5054429;23;20173;-93
2023/03/06 10:02:20;;;;;;;;;;;;;;;;;;;;;
2023/03/06 10:12:10;;;;;;;38.22;22.15;;;9.60;99.90;;;;;;5087500;23;20260;-93
2023/03/06 10:58:22;;;;;;;29.07;14.80;;;8.80;99.90;;;;;;5089417;23;20210;-95
2023/03/06 11:12:49;;;;;;;32.23;16.67;;;8.70;99.90;;;;;;4994602;23;20268;-96
2023/03/06 11:16:05;;;;;;;;;;;;;;;;;;;;;
2023/03/06 11:39:58;;;;;;;;;;;;;;;;;;;;;
2023/03/06 12:14:42;;;;;;;;;;;;;;;;;;;;;
2023/03/06 17:14:45;;;;;;;21.57;12.47;;;8.00;99.90;;;;;;5045712;23;20212;-91
2023/03/06 17:16:46;;;;;;;24.53;13.47;;;8.10;99.90;;;;;;5024071;23;20159;-92
2023/03/06 17:18:48;;;;;;;25.83;12.60;;;8.20;99.90;;;;;;5023924;23;20155;-92
2023/03/06 17:20:51;;;;;;;23.77;12.50;;;8.30;99.90;;;;;;5023337;23;20222;-93
2023/03/06 17:22:55;;;;;;;21.20;12.20;;;8.20;99.90;;;;;;5027875;23;20150;-91
2023/03/06 17:24:56;;;;;;;20.70;11.97;;;8.20;99.90;;;;;;5038674;23;20142;-92
2023/03/06 17:26:56;;;;;;;22.80;12.43;;;8.10;99.90;;;;;;5058283;23;20178;-92
2023/03/06 17:29:00;;;;;;;25.43;13.10;;;8.00;99.90;;;;;;5037042;23;20206;-92
2023/03/06 17:31:02;;;;;;;19.77;11.30;;;7.70;99.90;;;;;;5040675;23;20214;-93
2023/03/06 17:33:10;;;;;;;19.80;12.00;;;7.80;99.90;;;;;;5065704;23;20182;-92
2023/03/06 17:35:11;;;;;;;19.87;10.43;;;8.00;99.90;;;;;;5030755;23;20159;-91
2023/03/06 17:37:14;;;;;;;14.37;8.60;;;7.80;99.90;;;;;;5053661;23;20151;-93
2023/03/06 17:39:21;;;;;;;17.73;9.87;;;7.70;99.90;;;;;;5039826;23;20226;-90
2023/03/06 17:41:28;;;;;;;19.93;10.40;;;7.60;99.90;;;;;;5033568;23;20257;-94
2023/03/06 17:43:32;;;;;;;20.03;10.30;;;7.30;99.90;;;;;;5056767;23;20581;-92
2023/03/06 17:45:35;;;;;;;17.53;9.77;;;7.20;99.90;;;;;;5054136;23;20163;-91
2023/03/06 17:47:36;;;;;;;19.47;10.23;;;7.10;99.90;;;;;;5031736;23;20194;-93
2023/03/06 17:49:37;;;;;;;17.43;9.77;;;7.00;99.90;;;;;;5052875;23;20157;-91
2023/03/06 17:51:38;;;;;;;16.43;10.10;;;7.00;99.90;;;;;;5024572;23;20183;-91
2023/03/06 17:53:42;;;;;;;20.33;11.37;;;6.80;99.90;;;;;;5055791;23;20556;-91
2023/03/06 17:55:44;;;;;;;18.27;10.53;;;6.90;99.90;;;;;;5033512;23;20163;-91
2023/03/06 17:57:44;;;;;;;17.27;10.47;;;6.90;99.90;;;;;;5030600;23;20163;-90
2023/03/06 17:59:48;;;;;;;17.80;10.43;;;6.90;99.90;;;;;;5023894;23;20151;-92
2023/03/06 18:01:49;;;;;;;17.20;10.80;;;6.90;99.90;;;;;;5026795;23;20217;-92
2023/03/06 18:04:01;;;;;;;20.43;10.47;;;6.80;99.90;;;;;;5031231;23;20155;-93
2023/03/06 18:06:20;;;;;;;17.60;10.57;;;6.90;99.90;;;;;;5053835;23;20164;-91
2023/03/06 18:08:21;;;;;;;20.00;11.10;;;6.90;99.90;;;;;;5027105;23;20221;-93
2023/03/06 18:10:23;;;;;;;19.70;10.30;;;7.00;99.90;;;;;;5030598;23;20175;-92
2023/03/06 18:12:24;;;;;;;22.37;10.27;;;7.10;99.90;;;;;;5026080;23;20618;-93
2023/03/06 18:14:26;;;;;;;18.80;10.60;;;7.20;99.90;;;;;;5052382;23;20147;-92
2023/03/06 18:16:27;;;;;;;15.23;9.47;;;7.20;99.90;;;;;;5004240;23;20197;-92
2023/03/06 18:18:30;;;;;;;15.70;8.77;;;7.00;99.90;;;;;;5049386;23;20158;-91
2023/03/06 18:20:33;;;;;;;15.50;8.97;;;7.00;99.90;;;;;;5023464;23;20512;-91
2023/03/06 18:22:35;;;;;;;14.10;8.67;;;6.80;99.90;;;;;;5025683;23;20237;-93
2023/03/06 18:24:36;;;;;;;12.07;6.93;;;6.90;99.90;;;;;;5026292;23;20162;-92
2023/03/06 18:26:40;;;;;;;11.37;7.20;;;6.90;99.90;;;;;;5051381;23;20153;-92
2023/03/06 18:28:47;;;;;;;12.40;6.97;;;6.90;99.90;;;;;;5030055;23;20155;-93
2023/03/06 18:30:49;;;;;;;9.17;6.00;;;6.70;99.90;;;;;;5027916;23;20198;-93
2023/03/06 18:33:00;;;;;;;12.60;5.83;;;6.80;99.90;;;;;;5052413;23;20236;-93
2023/03/06 18:35:02;;;;;;;9.60;5.63;;;6.80;99.90;;;;;;5024899;23;20642;-92
2023/03/06 18:37:03;;;;;;;10.70;6.27;;;6.90;99.90;;;;;;5031600;23;20135;-96
2023/03/06 18:39:10;;;;;;;11.87;6.47;;;6.90;99.90;;;;;;5004594;23;20212;-93
2023/03/06 18:41:16;;;;;;;10.63;6.40;;;7.00;99.90;;;;;;5049298;23;20156;-93
2023/03/06 18:43:20;;;;;;;10.53;6.20;;;7.10;99.90;;;;;;5028228;23;20242;-92
2023/03/06 18:45:22;;;;;;;12.73;7.10;;;7.10;99.90;;;;;;5027115;23;20678;-94
2023/03/06 18:47:23;;;;;;;10.97;6.30;;;7.10;99.90;;;;;;5026629;23;20198;-91
2023/03/06 18:49:47;;;;;;;9.77;6.40;;;7.00;99.90;;;;;;5049339;23;20230;-93
2023/03/06 18:51:50;;;;;;;11.97;6.73;;;7.00;99.90;;;;;;5026458;23;20682;-93
2023/03/06 18:53:56;;;;;;;10.33;6.03;;;7.10;99.90;;;;;;5028779;23;20159;-94
2023/03/06 18:56:05;;;;;;;13.60;6.87;;;6.90;99.90;;;;;;5047645;23;20209;-93
2023/03/06 18:58:08;;;;;;;10.97;6.73;;;6.70;99.90;;;;;;5049673;23;20210;-92
2023/03/06 19:00:10;;;;;;;16.83;6.60;;;6.80;99.90;;;;;;5026544;23;20177;-93
2023/03/06 19:02:13;;;;;;;13.90;7.63;;;6.80;99.90;;;;;;5031873;23;20186;-93
2023/03/06 19:04:22;;;;;;;14.73;7.77;;;6.70;99.90;;;;;;5022796;23;20155;-94
2023/03/06 19:06:22;;;;;;;14.03;7.10;;;6.70;99.90;;;;;;5024668;23;20169;-93
2023/03/06 19:08:26;;;;;;;10.87;6.93;;;6.50;99.90;;;;;;5050478;23;20189;-96
2023/03/06 19:10:28;;;;;;;17.07;8.13;;;6.40;99.90;;;;;;5050727;23;20696;-94
2023/03/06 19:12:39;;;;;;;17.67;7.80;;;6.40;99.90;;;;;;5050647;23;20154;-93
2023/03/06 19:14:42;;;;;;;15.07;7.87;;;6.40;99.90;;;;;;5054710;23;20567;-95
2023/03/06 19:16:48;;;;;;;14.07;7.63;;;6.40;99.90;;;;;;5029441;23;20179;-93
2023/03/06 19:18:51;;;;;;;17.37;8.87;;;6.40;99.90;;;;;;5050194;23;20162;-94
2023/03/06 19:20:52;;;;;;;15.17;8.17;;;6.40;99.90;;;;;;5025291;23;20178;-94
2023/03/06 19:22:56;;;;;;;19.27;10.00;;;6.40;99.90;;;;;;5048701;23;20177;-94
2023/03/06 19:24:57;;;;;;;17.23;9.60;;;6.50;99.90;;;;;;5027557;23;20154;-94
2023/03/06 19:27:04;;;;;;;22.73;9.70;;;6.60;99.90;;;;;;5029418;23;20182;-95
2023/03/06 19:29:25;;;;;;;21.30;11.20;;;6.70;99.90;;;;;;5030260;23;20238;-94
2023/03/06 19:31:30;;;;;;;21.47;11.13;;;6.80;99.90;;;;;;5048882;23;20679;-94
2023/03/06 19:33:36;;;;;;;17.23;9.63;;;6.80;99.90;;;;;;5026494;23;20159;-93
2023/03/06 19:35:41;;;;;;;20.47;9.60;;;7.00;99.90;;;;;;5033741;23;20159;-94
2023/03/06 19:37:45;;;;;;;17.40;9.57;;;7.00;99.90;;;;;;5028014;23;20140;-93
2023/03/06 19:39:47;;;;;;;20.60;9.57;;;7.10;99.90;;;;;;5028027;23;20514;-92
2023/03/06 19:41:48;;;;;;;18.87;10.10;;;7.00;99.90;;;;;;5028480;23;20202;-93
2023/03/06 19:43:52;;;;;;;17.13;10.40;;;6.80;99.90;;;;;;5028210;23;20207;-94
2023/03/06 19:45:59;;;;;;;18.30;9.53;;;6.80;99.90;;;;;;5052113;23;20261;-93
2023/03/06 19:48:10;;;;;;;18.50;9.97;;;6.80;99.90;;;;;;5023528;23;20205;-93
2023/03/06 19:50:17;;;;;;;18.53;9.87;;;6.80;99.90;;;;;;5050353;23;20162;-92
2023/03/06 19:52:19;;;;;;;17.37;9.57;;;6.80;99.90;;;;;;5024343;23;20662;-93
2023/03/06 19:54:25;;;;;;;22.07;10.30;;;6.60;99.90;;;;;;5029783;23;20154;-94
2023/03/06 19:56:32;;;;;;;23.63;11.23;;;6.50;99.90;;;;;;5052947;23;20161;-93
2023/03/06 19:58:37;;;;;;;18.30;9.50;;;6.60;99.90;;;;;;5053459;23;20158;-92
2023/03/06 20:00:49;;;;;;;26.87;12.53;;;6.70;99.90;;;;;;5056371;23;20170;-93
2023/03/06 20:02:52;;;;;;;19.17;10.23;;;6.50;99.90;;;;;;5043856;23;20135;-92
2023/03/06 20:05:01;;;;;;;17.20;8.73;;;6.50;99.90;;;;;;5032281;23;20159;-94
2023/03/06 20:07:03;;;;;;;16.23;9.00;;;6.70;99.90;;;;;;5030274;23;20190;-93
2023/03/06 20:09:15;;;;;;;27.53;9.77;;;6.80;99.90;;;;;;5050366;23;20166;-94
2023/03/06 20:11:22;;;;;;;16.57;8.30;;;6.80;99.90;;;;;;5028924;23;20201;-92
2023/03/06 20:14:00;;;;;;;18.67;8.23;;;6.70;99.90;;;;;;5056006;23;20182;-93
2023/03/06 20:16:12;;;;;;;21.53;8.37;;;6.80;99.90;;;;;;5053639;23;20158;-94
2023/03/06 20:18:13;;;;;;;16.20;7.67;;;6.90;99.90;;;;;;5026722;23;20159;-92
2023/03/06 20:20:15;;;;;;;20.93;8.93;;;6.90;99.90;;;;;;5050142;23;20138;-92
2023/03/06 20:22:37;;;;;;;21.47;7.80;;;6.90;99.90;;;;;;5048048;23;20201;-91
2023/03/06 20:24:39;;;;;;;16.07;7.63;;;7.00;99.90;;;;;;5028097;23;20187;-93
2023/03/06 20:26:42;;;;;;;17.07;7.20;;;7.00;99.90;;;;;;5023170;23;20215;-92
2023/03/06 20:28:43;;;;;;;14.53;7.23;;;7.00;99.90;;;;;;5025819;23;20155;-93
2023/03/06 20:30:48;;;;;;;20.30;7.77;;;7.10;99.90;;;;;;5029113;23;20218;-92
2023/03/06 20:32:50;;;;;;;18.30;7.00;;;7.00;99.90;;;;;;5056480;23;20217;-95
2023/03/06 20:34:56;;;;;;;14.83;6.27;;;6.90;99.90;;;;;;5028252;23;20250;-94
2023/03/06 20:36:57;;;;;;;20.70;6.73;;;6.80;99.90;;;;;;5030819;23;20291;-94
2023/03/06 20:39:17;;;;;;;16.90;6.10;;;6.70;99.90;;;;;;5027784;23;20154;-94
2023/03/06 20:41:23;;;;;;;22.63;7.83;;;6.70;99.90;;;;;;5027677;23;20233;-92
2023/03/06 20:43:24;;;;;;;13.80;6.10;;;6.60;99.90;;;;;;5029483;23;20142;-92
2023/03/06 20:45:26;;;;;;;18.60;7.10;;;6.80;99.90;;;;;;5030010;23;20155;-92
2023/03/06 20:47:27;;;;;;;14.30;6.33;;;6.90;99.90;;;;;;5025762;23;20226;-93
2023/03/06 20:49:27;;;;;;;14.83;5.90;;;7.00;99.90;;;;;;5025971;23;20566;-91
2023/03/06 20:51:31;;;;;;;17.43;6.30;;;6.90;99.90;;;;;;5050161;23;20206;-93
2023/03/06 20:53:35;;;;;;;14.23;6.10;;;7.00;99.90;;;;;;5034933;23;20151;-93
2023/03/06 20:55:36;;;;;;;14.10;5.83;;;6.90;99.90;;;;;;5033804;23;20151;-91
2023/03/06 20:57:38;;;;;;;14.73;5.77;;;7.00;99.90;;;;;;5029307;23;20230;-93
2023/03/06 20:59:44;;;;;;;14.07;5.40;;;7.00;99.90;;;;;;5028688;23;20162;-92
2023/03/06 21:01:48;;;;;;;12.73;5.03;;;7.10;99.90;;;;;;5049895;23;20170;-91
2023/03/06 21:03:49;;;;;;;14.40;5.73;;;7.10;99.90;;;;;;5029051;23;20197;-91
2023/03/06 21:05:50;;;;;;;15.40;5.20;;;7.20;99.90;;;;;;5025898;23;20151;-96
2023/03/06 21:07:51;;;;;;;14.83;6.33;;;6.90;99.90;;;;;;5049311;23;20192;-93
2023/03/06 21:09:52;;;;;;;12.77;5.77;;;6.90;99.90;;;;;;5025799;23;20151;-91
2023/03/06 21:11:53;;;;;;;14.33;4.93;;;6.80;99.90;;;;;;5025747;23;20171;-92
2023/03/06 21:13:54;;;;;;;15.87;4.97;;;6.80;99.90;;;;;;5026190;23;20614;-93
2023/03/06 21:15:58;;;;;;;12.90;5.00;;;6.70;99.90;;;;;;5025820;23;20222;-94
2023/03/06 21:18:00;;;;;;;14.80;4.90;;;6.50;99.90;;;;;;5074986;23;20161;-91
2023/03/06 21:20:00;;;;;;;11.70;6.10;;;6.40;99.90;;;;;;5025762;23;20235;-93
2023/03/06 21:22:01;;;;;;;12.83;5.07;;;6.40;99.90;;;;;;5049040;23;20166;-96
2023/03/06 21:24:02;;;;;;;13.47;5.10;;;6.40;99.90;;;;;;5023659;23;20154;-91
2023/03/06 21:26:03;;;;;;;16.60;5.77;;;6.40;99.90;;;;;;5022782;23;20159;-93
2023/03/06 21:28:04;;;;;;;13.97;5.70;;;6.40;99.90;;;;;;5025237;23;20190;-92
2023/03/06 21:30:06;;;;;;;17.03;5.83;;;6.20;99.90;;;;;;5048067;23;20209;-91
2023/03/06 21:32:07;;;;;;;17.07;5.10;;;6.30;99.90;;;;;;5024265;23;20179;-94
2023/03/06 21:34:10;;;;;;;13.87;5.67;;;6.20;99.90;;;;;;5029598;23;20182;-92
2023/03/06 21:36:11;;;;;;;14.53;5.00;;;6.20;99.90;;;;;;5028192;23;20162;-92
2023/03/06 21:38:13;;;;;;;23.07;5.73;;;6.30;99.90;;;;;;5024550;23;20211;-93
2023/03/06 21:40:14;;;;;;;10.57;4.77;;;6.40;99.90;;;;;;5023931;23;20151;-92
2023/03/06 21:42:15;;;;;;;11.10;4.67;;;6.40;99.90;;;;;;5027219;23;20677;-92
2023/03/06 21:44:16;;;;;;;13.30;4.53;;;6.40;99.90;;;;;;5025620;23;20179;-92
2023/03/06 21:46:19;;;;;;;19.90;4.57;;;6.30;99.90;;;;;;5051100;23;20150;-92
2023/03/06 21:48:20;;;;;;;11.70;4.33;;;6.30;99.90;;;;;;5026800;23;20661;-95
2023/03/06 21:50:21;;;;;;;7.73;3.17;;;6.20;99.90;;;;;;5026776;23;20151;-91
2023/03/06 21:52:23;;;;;;;7.93;4.10;;;6.10;99.90;;;;;;5026682;23;20158;-92
2023/03/06 21:54:25;;;;;;;13.60;4.00;;;6.10;99.90;;;;;;5026912;23;20157;-91
2023/03/06 21:56:27;;;;;;;11.07;3.83;;;6.10;99.90;;;;;;5026911;23;20181;-91
2023/03/06 21:58:28;;;;;;;5.77;3.13;;;6.30;99.90;;;;;;5050959;23;20605;-92
2023/03/06 22:00:29;;;;;;;10.10;3.40;;;6.30;99.90;;;;;;5024478;23;20210;-93
2023/03/06 22:02:31;;;;;;;9.63;3.13;;;6.20;99.90;;;;;;5051667;23;20178;-91
2023/03/06 22:04:32;;;;;;;10.27;2.80;;;6.10;99.90;;;;;;5025078;23;20207;-94
2023/03/06 22:06:33;;;;;;;7.67;2.40;;;6.20;99.90;;;;;;5031208;23;20191;-95
2023/03/06 22:08:33;;;;;;;7.10;3.37;;;6.10;99.90;;;;;;5029104;23;20191;-91
2023/03/06 22:10:39;;;;;;;8.43;2.77;;;6.00;99.90;;;;;;5028213;23;20171;-94
2023/03/06 22:12:44;;;;;;;7.37;3.23;;;6.10;99.90;;;;;;5028925;23;20159;-94
2023/03/06 22:14:45;;;;;;;4.87;2.33;;;6.10;99.90;;;;;;5028649;23;20215;-93
2023/03/06 22:16:46;;;;;;;9.40;2.87;;;6.00;99.90;;;;;;5029374;23;20151;-95
2023/03/06 22:18:48;;;;;;;11.93;3.40;;;6.00;99.90;;;;;;5029620;23;20158;-94
2023/03/06 22:20:50;;;;;;;9.83;3.07;;;6.20;99.90;;;;;;5026774;23;20179;-93
2023/03/06 22:22:51;;;;;;;8.63;3.03;;;6.20;99.90;;;;;;5027775;23;20150;-94
2023/03/06 22:24:52;;;;;;;10.03;3.60;;;6.10;99.90;;;;;;5025979;23;20155;-91
2023/03/06 22:26:57;;;;;;;9.23;3.07;;;6.10;99.90;;;;;;5050362;23;20147;-92
2023/03/06 22:28:58;;;;;;;9.03;2.50;;;6.10;99.90;;;;;;5024780;23;20158;-91
2023/03/06 22:31:10;;;;;;;7.30;2.30;;;6.10;99.90;;;;;;5028258;23;20174;-92
2023/03/06 22:33:11;;;;;;;9.63;3.10;;;6.10;99.90;;;;;;5043159;23;20139;-93
2023/03/06 22:35:13;;;;;;;7.50;3.03;;;6.00;99.90;;;;;;5040804;23;20191;-93
2023/03/06 22:37:14;;;;;;;12.00;3.20;;;6.10;99.90;;;;;;5024279;23;20151;-93
2023/03/06 22:39:15;;;;;;;14.17;3.73;;;6.20;99.90;;;;;;5023632;23;20159;-96
2023/03/06 22:41:17;;;;;;;9.20;3.50;;;6.20;99.90;;;;;;5022554;23;20186;-93
2023/03/06 22:43:18;;;;;;;12.43;3.73;;;6.10;99.90;;;;;;5046870;23;20151;-91
2023/03/06 22:45:19;;;;;;;10.77;3.47;;;6.20;99.90;;;;;;5025127;23;20214;-94
2023/03/06 22:47:23;;;;;;;9.50;3.33;;;6.20;99.90;;;;;;5023810;23;20646;-92
2023/03/06 22:49:24;;;;;;;4.83;2.80;;;6.20;99.90;;;;;;5047781;23;20154;-92
2023/03/06 22:51:29;;;;;;;10.77;3.57;;;6.10;99.90;;;;;;5022761;23;20185;-95
2023/03/06 22:53:31;;;;;;;8.43;2.93;;;6.20;99.90;;;;;;5022094;23;20155;-93
2023/03/06 22:55:34;;;;;;;8.67;3.53;;;6.30;99.90;;;;;;5023117;23;20602;-94
2023/03/06 22:57:34;;;;;;;9.17;3.50;;;6.10;99.90;;;;;;5022974;23;20155;-93
2023/03/06 22:59:35;;;;;;;8.63;2.40;;;6.20;99.90;;;;;;5046924;23;20202;-95
2023/03/06 23:01:41;;;;;;;10.23;3.27;;;6.20;99.90;;;;;;5025085;23;20170;-94
2023/03/06 23:03:45;;;;;;;8.03;3.10;;;6.20;99.90;;;;;;5026400;23;20155;-91
2023/03/06 23:05:51;;;;;;;5.57;3.13;;;6.20;99.90;;;;;;5024195;23;20210;-93
2023/03/06 23:07:55;;;;;;;7.97;3.10;;;6.00;99.90;;;;;;5024882;23;20198;-92
2023/03/06 23:10:05;;;;;;;12.33;3.30;;;6.10;99.90;;;;;;5049152;23;20165;-93
2023/03/06 23:12:27;;;;;;;8.87;3.10;;;6.10;99.90;;;;;;5047420;23;20169;-95
2023/03/06 23:14:49;;;;;;;8.77;3.03;;;6.20;99.90;;;;;;5047835;23;20162;-93
2023/03/06 23:17:15;;;;;;;6.87;2.53;;;6.00;99.90;;;;;;5050619;23;20225;-92
2023/03/06 23:19:42;;;;;;;6.20;2.83;;;5.90;99.90;;;;;;5047388;23;20190;-92
2023/03/06 23:22:04;;;;;;;6.97;3.10;;;5.90;99.90;;;;;;5046997;23;20184;-95
2023/03/06 23:24:24;;;;;;;10.83;3.03;;;5.80;99.90;;;;;;5047763;23;20688;-92
2023/03/06 23:26:27;;;;;;;9.03;2.67;;;5.80;99.90;;;;;;5048223;23;20181;-95
2023/03/06 23:28:31;;;;;;;11.67;3.80;;;5.80;99.90;;;;;;5024579;23;20705;-95
2023/03/06 23:30:32;;;;;;;7.07;3.47;;;5.80;99.90;;;;;;5026597;23;20168;-95
2023/03/06 23:32:41;;;;;;;9.77;3.90;;;5.90;99.90;;;;;;5024702;23;20207;-92
2023/03/06 23:34:42;;;;;;;8.27;3.77;;;5.90;99.90;;;;;;5047576;23;20228;-92